• Join FlightAware (Why Join?)
  • Login
  • US Flag 
02:12PM EDT


 

Airport Tracker/Info


-or-


 

Live Flight TrackerFlight Track Log ✈ N31700 ✈ 11-Jul-2013 ✈ KOSU - KTYS

Flight Track Log - Related Links

Times and Time Zones

All times are in EDT time to prevent confusion due to time zone crossing. See the N31700 flight status page for this flight to view local times or setup timezone preferences in your user account.

Time Position Orientation Groundspeed Altitude Reporting Facility
EDT Latitude Longitude Course Direction KTS MPH feet Rate Location/Type
07:58PM 40.0817 -83.0675 191° South 78 90 1,100  Level Indianapolis Center
07:59PM 40.0894 -83.0525 56° Northeast 85 98 1,600 840 Climbing Indianapolis Center
08:00PM 40.0944 -83.0206 78° East 99 114 2,400 780 Climbing Indianapolis Center
08:01PM 40.0831 -82.9858 113° Southeast 109 125 3,200 660 Climbing Indianapolis Center
08:02PM 40.0717 -82.9522 114° Southeast 105 121 3,800 540 Climbing Indianapolis Center
08:03PM 40.0364 -82.9481 175° South 126 145 4,300 480 Climbing Indianapolis Center
08:04PM 39.8514 -83.1253 191° South  Level Estimated
08:04PM 39.9986 -82.9475 179° South 129 148 4,800  Level Indianapolis Center
08:05PM 39.9556 -82.9417 174° South 136 157 5,000 120 Climbing Indianapolis Center
08:06PM 39.9203 -82.9322 168° South 156 180 5,100 420 Climbing Indianapolis Center
08:07PM 39.8836 -82.9183 164° South 124 143 5,800 540 Climbing Indianapolis Center
08:08PM 39.8511 -82.9075 166° South 118 136 6,300 480 Climbing Indianapolis Center
08:09PM 39.8189 -82.8917 159° South 119 137 6,800 480 Climbing Indianapolis Center
08:10PM 39.7886 -82.8786 162° South 118 136 7,300 480 Climbing Indianapolis Center
08:11PM 39.7586 -82.8631 158° South 114 131 7,800 300 Climbing Indianapolis Center
08:12PM 39.7244 -82.8467 160° South 125 144 8,000 60 Climbing Indianapolis Center
08:13PM 39.6861 -82.8297 161° South 145 167 8,000  Level Indianapolis Center
08:14PM 39.6481 -82.8103 159° South 147 169 8,000  Level Indianapolis Center
08:15PM 39.6097 -82.7933 161° South 146 168 8,000  Level Indianapolis Center
08:16PM 39.5711 -82.7792 164° South 148 170 8,000 -60 Level Indianapolis Center
08:17PM 39.5194 -82.7650 168° South 144 166 7,900  Descending Indianapolis Center
08:18PM 39.4825 -82.7783 196° South 136 157 8,000  Climbing Indianapolis Center
08:19PM 39.4439 -82.7897 193° South 139 160 8,000 -60 Level Indianapolis Center
08:20PM 39.4075 -82.8028 195° South 137 158 7,900 -60 Descending Indianapolis Center
08:21PM 39.3714 -82.8156 195° South 134 154 7,900  Level Indianapolis Center
08:22PM 39.3347 -82.8286 195° South 135 155 7,900  Level Indianapolis Center
08:23PM 39.2972 -82.8414 195° South 136 157 8,000  Climbing Indianapolis Center
08:24PM 39.2606 -82.8553 196° South 136 157 7,900  Descending Indianapolis Center
08:25PM 39.2186 -82.8667 192° South 133 153 8,000  Climbing Indianapolis Center
08:26PM 39.1825 -82.8797 196° South 134 154 7,900 -60 Descending Indianapolis Center
08:27PM 39.1492 -82.8931 197° South 138 159 7,900 -60 Level Indianapolis Center
08:28PM 39.1114 -82.9056 194° South 140 161 7,800 -60 Descending Indianapolis Center
08:29PM 39.0669 -82.9203 194° South 138 159 7,800 60 Level Indianapolis Center
08:31PM 39.0314 -82.9331 196° South 132 152 8,000 60 Climbing Indianapolis Center
08:32PM 38.9956 -82.9442 194° South 132 152 8,000  Level Indianapolis Center
08:33PM 38.9600 -82.9583 197° South 134 154 8,000  Level Indianapolis Center
08:34PM 38.9242 -82.9708 195° South 134 154 8,000  Level Indianapolis Center
08:35PM 38.8869 -82.9819 193° South 136 157 8,000  Level Indianapolis Center
08:36PM 38.8517 -82.9964 198° South 135 155 8,000  Level Indianapolis Center
08:37PM 38.8069 -83.0122 195° South 139 160 8,000  Level Indianapolis Center
08:38PM 38.7700 -83.0242 194° South 137 158 8,000  Level Indianapolis Center
08:39PM 38.7322 -83.0386 197° South 140 161 8,000  Level Indianapolis Center
08:41PM 38.6564 -83.0642 195° South 140 161 8,000  Level Indianapolis Center
08:42PM 38.6144 -83.0789 195° South 140 161 8,000  Level Indianapolis Center
08:43PM 38.5758 -83.0928 196° South 143 165 8,000  Level Indianapolis Center
08:44PM 38.5369 -83.1058 195° South 144 166 8,000  Level Indianapolis Center
08:45PM 38.4972 -83.1136 189° South 144 166 8,000  Level Indianapolis Center
08:46PM 38.4578 -83.1242 192° South 145 167 8,000  Level Indianapolis Center
08:47PM 38.4194 -83.1442 202° Southwest 147 169 8,000  Level Indianapolis Center
08:48PM 38.3722 -83.1575 192° South 148 170 8,000  Level Indianapolis Center
08:49PM 38.3333 -83.1689 193° South 144 166 8,000  Level Indianapolis Center
08:50PM 38.2942 -83.1844 197° South 146 168 8,000  Level Indianapolis Center
08:51PM 38.2550 -83.1989 196° South 146 168 8,000  Level Indianapolis Center
08:52PM 38.2133 -83.2125 194° South 151 174 8,000  Level Indianapolis Center
08:53PM 38.1736 -83.2256 194° South 148 170 8,000  Level Indianapolis Center
08:54PM 38.1336 -83.2383 194° South 147 169 8,000  Level Indianapolis Center
08:55PM 38.0889 -83.2544 196° South 145 167 8,000  Level Indianapolis Center
08:56PM 38.0506 -83.2675 195° South 142 163 8,000  Level Indianapolis Center
08:57PM 38.0136 -83.2794 194° South 139 160 8,000  Level Indianapolis Center
08:58PM 37.9758 -83.2928 196° South 140 161 8,000  Level Indianapolis Center
08:59PM 37.9389 -83.3044 194° South 139 160 8,000  Level Indianapolis Center
09:00PM 37.9006 -83.3167 194° South 140 161 8,000  Level Indianapolis Center
09:01PM 37.8622 -83.3294 195° South 141 162 8,000  Level Indianapolis Center
09:02PM 37.8239 -83.3433 196° South 142 163 8,000  Level Indianapolis Center
09:03PM 37.7806 -83.3583 195° South 139 160 8,000  Level Indianapolis Center
09:04PM 37.7417 -83.3717 195° South 143 165 8,000  Level Indianapolis Center
09:05PM 37.7031 -83.3833 193° South 141 162 8,000  Level Indianapolis Center
09:06PM 37.6639 -83.3967 195° South 145 167 8,000  Level Indianapolis Center
09:07PM 37.6233 -83.3917 174° South 154 177 8,000  Level Indianapolis Center
09:09PM 37.5828 -83.3853 173° South 149 171 8,000  Level Indianapolis Center
09:10PM 37.5342 -83.3794 175° South 149 171 8,000 -60 Level Indianapolis Center
09:11PM 37.4928 -83.3728 173° South 149 171 7,900  Descending Indianapolis Center
09:12PM 37.4522 -83.3681 175° South 148 170 8,000  Climbing Indianapolis Center
09:13PM 37.4106 -83.3636 175° South 148 170 8,000  Level Indianapolis Center
09:14PM 37.3697 -83.3622 178° South 147 169 8,000  Level Indianapolis Center
09:15PM 37.3297 -83.3639 182° South 145 167 8,100  Climbing Indianapolis Center
09:16PM 37.2886 -83.3594 175° South 147 169 8,000  Descending Indianapolis Center
09:17PM 37.2400 -83.3553 176° South 149 171 8,100  Climbing Indianapolis Center
09:18PM 37.1978 -83.3517 176° South 151 174 8,100  Level Indianapolis Center
09:19PM 37.1567 -83.3494 178° South 150 173 8,100  Level Indianapolis Center
09:20PM 37.1144 -83.3447 175° South 150 173 8,100  Level Indianapolis Center
09:21PM 37.0725 -83.3419 177° South 150 173 8,100  Level Indianapolis Center
09:22PM 37.0325 -83.3400 178° South 147 169 8,100  Level Indianapolis Center
09:23PM 36.9844 -83.3447 184° South 148 170 8,100  Level Indianapolis Center
09:24PM 36.9436 -83.3542 190° South 150 173 8,100  Level Indianapolis Center
09:25PM 36.9069 -83.3725 202° Southwest 145 167 8,100  Level Indianapolis Center
09:26PM 36.8711 -83.3906 202° Southwest 141 162 8,100  Level Indianapolis Center
09:27PM 36.8356 -83.4106 204° Southwest 140 161 8,100 -60 Level Indianapolis Center
09:28PM 36.7997 -83.4319 206° Southwest 142 163 8,000  Descending Indianapolis Center
09:29PM 36.7628 -83.4528 204° Southwest 145 167 8,100  Climbing Indianapolis Center
09:30PM 36.7200 -83.4772 205° Southwest 146 168 8,100  Level Indianapolis Center
09:31PM 36.6853 -83.4983 206° Southwest 142 163 8,100  Level Indianapolis Center
09:32PM 36.6486 -83.5194 205° Southwest 143 165 8,100  Level Indianapolis Center
09:33PM 36.6119 -83.5392 203° Southwest 143 165 8,100  Level Indianapolis Center
09:34PM 36.5758 -83.5606 205° Southwest 144 166 8,100 -60 Level Indianapolis Center
09:35PM 36.5403 -83.5819 206° Southwest 143 165 8,000  Descending Indianapolis Center
09:36PM 36.5014 -83.6019 202° Southwest 146 168 8,100  Climbing Indianapolis Center
09:37PM 36.4664 -83.6219 205° Southwest 142 163 8,000 -60 Descending Indianapolis Center
09:38PM 36.4217 -83.6431 201° Southwest 142 163 8,000  Level Indianapolis Center
09:39PM 36.3828 -83.6583 198° South 145 167 8,000 -60 Level Indianapolis Center
09:40PM 36.3483 -83.6819 209° Southwest 143 165 7,900 -60 Descending Indianapolis Center
09:41PM 36.3150 -83.7047 209° Southwest 138 159 7,900  Level Indianapolis Center